world map with BJR marked

BJR - Airport

This information may not be accurate or current and is not valid for navigation or flight planning. No warranty of fitness for any purpose is made or implied.

flag of Amaraflag of Ethiopia

Donate via PayPal

Additional information is available on the NEW Great Circle Mapper

Location
City:  Bahar Dar, Amara, Ethiopia
ICAO / IATA:HABD / BJR

Details
Type:Airport (Aerodrome, Airfield)
Use:Public/Civil
Latitude:11°36'29"N (11.608075)
Longitude:37°19'18"E (37.321644)
Datum:WGS 1984
Elevation:5976 ft (1821 m)
Runways:1
Longest:9842 × 200 ft (3000 × 61 m)

Time
Timezone:UTC+3 (DST+5)
Local Time:

Weather
METAR:HABD  (expired)
TAF:HABD  160330Z 1606/1712 32010KT 9999 SCT030 FEW080 BECMG 1612/1615 34012KT SCT030 BECMG 1615/1618 30010KT FEW030 FEW080

Related Locations
Nearby:
Farthest:NAU: 12233 mi / 19687 km
Napuka Island, PF

Find:

   beyond  
but within

Other Information
Maps:
Sources:

  


 


Great Circle Mapper   Great Circle Mapper
Great Circle Mapper FAQ   Great Circle Mapper FAQ
  Karl's Home Page
KLSē   KLSē Home
   GC on Facebook
Airlines of the World   Airlines of the World
Donate via PayPal


Copyright © 2004-2019, Karl L. Swartz. All rights reserved.
All trademarks mentioned herein belong to their respective owners.

Please see credits for attribution and copyright information.

Karl Swartz <karl@kls2.com>
  Powered by FreeBSD
Valid HTML 4.01!
Labeled with ICRA
hCard Microformat
Geo Microformat